Time;durP1;ratioP1;P1;durP2;ratioP2;P2;SDS_P1;SDS_P2;PMS_P1;PMS_P2;Temp;Humidity;BMP_temperature;BMP_pressure;BME280_temperature;BME280_humidity;BME280_pressure;Samples;Min_cycle;Max_cycle;Signal;HPM_P1;HPM_P2
2021/10/30 00:00:24;;;;;;;21.00;12.30;;;;;;;;;;4896871;29;20036;-63
2021/10/30 00:02:50;;;;;;;21.50;12.05;;;;;;;;;;4899066;29;20401;-63
2021/10/30 00:05:16;;;;;;;21.33;11.60;;;;;;;;;;4899321;29;20040;-62
2021/10/30 00:07:43;;;;;;;23.30;12.40;;;;;;;;;;4898940;29;20036;-64
2021/10/30 00:10:10;;;;;;;19.80;11.85;;;;;;;;;;4898876;29;20087;-63
2021/10/30 00:12:36;;;;;;;24.73;12.40;;;;;;;;;;4898780;29;20039;-63
2021/10/30 00:15:03;;;;;;;25.77;13.25;;;;;;;;;;4898961;29;20160;-63
2021/10/30 00:17:29;;;;;;;19.73;12.18;;;;;;;;;;4898841;29;20100;-63
2021/10/30 00:19:55;;;;;;;21.33;12.70;;;;;;;;;;4898591;29;20033;-63
2021/10/30 00:22:21;;;;;;;21.90;12.93;;;;;;;;;;4881727;29;20039;-64
2021/10/30 00:24:48;;;;;;;26.05;12.43;;;;;;;;;;4881959;29;20035;-64
2021/10/30 00:27:14;;;;;;;20.13;12.48;;;;;;;;;;4898957;29;20024;-63
2021/10/30 00:29:41;;;;;;;20.65;12.73;;;;;;;;;;4898937;29;20025;-63
2021/10/30 00:32:07;;;;;;;25.23;12.73;;;;;;;;;;4881826;29;20040;-62
2021/10/30 00:34:33;;;;;;;23.33;12.55;;;;;;;;;;4898793;29;20037;-61
2021/10/30 00:37:00;;;;;;;24.33;12.55;;;;;;;;;;4898559;29;20069;-61
2021/10/30 00:39:26;;;;;;;20.70;11.98;;;;;;;;;;4881426;29;20456;-61
2021/10/30 00:41:52;;;;;;;24.27;13.70;;;;;;;;;;4898365;29;20481;-61
2021/10/30 00:44:19;;;;;;;21.15;13.07;;;;;;;;;;4898330;29;20107;-62
2021/10/30 00:46:46;;;;;;;22.45;12.88;;;;;;;;;;4898369;29;20104;-64
2021/10/30 00:49:13;;;;;;;22.58;13.25;;;;;;;;;;4898342;29;20032;-62
2021/10/30 00:51:40;;;;;;;20.10;12.68;;;;;;;;;;4898096;29;20120;-62
2021/10/30 00:54:07;;;;;;;21.98;12.77;;;;;;;;;;4897771;29;20523;-63
2021/10/30 00:56:34;;;;;;;23.02;13.18;;;;;;;;;;4898174;29;20665;-65
2021/10/30 00:59:03;;;;;;;22.35;13.20;;;;;;;;;;4897760;29;20040;-64
2021/10/30 01:01:29;;;;;;;22.65;12.73;;;;;;;;;;4897386;29;20044;-63
2021/10/30 01:03:55;;;;;;;24.27;13.43;;;;;;;;;;4898012;29;20096;-63
2021/10/30 01:06:22;;;;;;;22.92;12.80;;;;;;;;;;4897968;29;20107;-64
2021/10/30 01:08:48;;;;;;;25.45;14.10;;;;;;;;;;4897749;29;20043;-62
2021/10/30 01:11:17;;;;;;;24.63;13.45;;;;;;;;;;4897593;29;20448;-61
2021/10/30 01:13:43;;;;;;;25.30;14.38;;;;;;;;;;4897408;29;20052;-62
2021/10/30 01:16:10;;;;;;;25.25;13.35;;;;;;;;;;4897745;29;20496;-63
2021/10/30 01:18:36;;;;;;;22.30;13.85;;;;;;;;;;4897695;29;20462;-65
2021/10/30 01:21:03;;;;;;;24.02;13.57;;;;;;;;;;4897598;29;20682;-64
2021/10/30 01:23:29;;;;;;;21.83;13.75;;;;;;;;;;4897500;29;20034;-62
2021/10/30 01:26:00;;;;;;;23.58;13.68;;;;;;;;;;4880635;29;20040;-62
2021/10/30 01:28:30;;;;;;;23.17;13.23;;;;;;;;;;4897396;29;20031;-63
2021/10/30 01:30:57;;;;;;;25.27;13.68;;;;;;;;;;4897343;29;20028;-62
2021/10/30 01:33:23;;;;;;;24.40;13.93;;;;;;;;;;4897429;29;20515;-62
2021/10/30 01:35:49;;;;;;;25.05;13.57;;;;;;;;;;4897101;29;20031;-62
2021/10/30 01:38:16;;;;;;;25.38;14.18;;;;;;;;;;4880046;29;20478;-62
2021/10/30 01:40:43;;;;;;;23.75;12.93;;;;;;;;;;4897356;29;20115;-63
2021/10/30 01:43:10;;;;;;;24.65;14.07;;;;;;;;;;4897230;29;20028;-61
2021/10/30 01:45:36;;;;;;;22.73;14.98;;;;;;;;;;4897296;29;20064;-62
2021/10/30 01:48:03;;;;;;;25.80;13.38;;;;;;;;;;4897033;29;20025;-63
2021/10/30 01:50:29;;;;;;;25.38;14.52;;;;;;;;;;4897160;29;20020;-63
2021/10/30 01:52:57;;;;;;;26.20;14.98;;;;;;;;;;4897117;29;20084;-63
2021/10/30 01:55:23;;;;;;;25.40;14.23;;;;;;;;;;4897268;29;20040;-64
2021/10/30 01:57:50;;;;;;;26.95;15.25;;;;;;;;;;4897400;29;20035;-62
2021/10/30 02:00:17;;;;;;;27.85;14.85;;;;;;;;;;4897103;29;20032;-62
2021/10/30 02:02:43;;;;;;;23.58;14.38;;;;;;;;;;4898119;29;20493;-61
2021/10/30 02:05:11;;;;;;;24.38;14.60;;;;;;;;;;4898635;29;20036;-61
2021/10/30 02:07:37;;;;;;;24.92;14.88;;;;;;;;;;4880444;29;20751;-62
2021/10/30 02:10:04;;;;;;;26.23;14.80;;;;;;;;;;4896428;29;20029;-63
2021/10/30 02:12:30;;;;;;;24.88;15.20;;;;;;;;;;4896725;29;20029;-64
2021/10/30 02:14:56;;;;;;;26.85;14.55;;;;;;;;;;4896759;29;20545;-64
2021/10/30 02:17:22;;;;;;;27.27;15.10;;;;;;;;;;4896521;29;20496;-63
2021/10/30 02:19:49;;;;;;;27.88;14.43;;;;;;;;;;4896534;29;20043;-63
2021/10/30 02:22:15;;;;;;;25.27;14.45;;;;;;;;;;4896787;29;20029;-63
2021/10/30 02:24:41;;;;;;;23.95;14.82;;;;;;;;;;4896427;29;20041;-64
2021/10/30 02:27:07;;;;;;;26.58;13.95;;;;;;;;;;4896633;29;20037;-63
2021/10/30 02:29:34;;;;;;;24.95;14.18;;;;;;;;;;4896473;29;20814;-63
2021/10/30 02:32:01;;;;;;;26.48;16.02;;;;;;;;;;4896360;29;20036;-62
2021/10/30 02:34:28;;;;;;;24.60;13.98;;;;;;;;;;4896668;29;20064;-63
2021/10/30 02:36:54;;;;;;;23.35;13.75;;;;;;;;;;4896644;29;20024;-63
2021/10/30 02:39:20;;;;;;;23.55;14.15;;;;;;;;;;4896248;29;20040;-63
2021/10/30 02:41:46;;;;;;;20.88;13.05;;;;;;;;;;4896351;29;20048;-63
2021/10/30 02:44:12;;;;;;;24.00;14.27;;;;;;;;;;4896262;29;20037;-64
2021/10/30 02:46:38;;;;;;;23.30;13.60;;;;;;;;;;4896250;29;20031;-63
2021/10/30 02:49:05;;;;;;;29.20;14.32;;;;;;;;;;4896179;29;20106;-63
2021/10/30 02:51:31;;;;;;;23.75;13.93;;;;;;;;;;4896429;29;20068;-65
2021/10/30 02:53:57;;;;;;;22.73;14.02;;;;;;;;;;4879182;29;20035;-63
2021/10/30 02:56:23;;;;;;;24.05;13.63;;;;;;;;;;4896200;29;20029;-62
2021/10/30 02:58:49;;;;;;;26.63;14.30;;;;;;;;;;4896144;29;20378;-64
2021/10/30 03:01:15;;;;;;;26.55;14.77;;;;;;;;;;4895703;29;20032;-65
2021/10/30 03:03:41;;;;;;;27.85;16.25;;;;;;;;;;4896248;29;20108;-63
2021/10/30 03:06:08;;;;;;;23.50;14.30;;;;;;;;;;4896086;29;20028;-63
2021/10/30 03:08:34;;;;;;;25.25;15.10;;;;;;;;;;4895916;29;20025;-62
2021/10/30 03:11:00;;;;;;;25.50;14.23;;;;;;;;;;4896167;29;20040;-64
2021/10/30 03:13:26;;;;;;;27.27;14.10;;;;;;;;;;4896291;29;20025;-64
2021/10/30 03:15:53;;;;;;;24.08;14.55;;;;;;;;;;4879146;29;20119;-64
2021/10/30 03:18:19;;;;;;;20.95;14.07;;;;;;;;;;4895852;29;20064;-65
2021/10/30 03:20:45;;;;;;;22.83;13.85;;;;;;;;;;4896253;29;20041;-63
2021/10/30 03:23:11;;;;;;;26.50;13.48;;;;;;;;;;4895860;29;20033;-64
2021/10/30 03:25:38;;;;;;;22.20;14.23;;;;;;;;;;4896030;29;20142;-63
2021/10/30 03:28:04;;;;;;;25.13;14.15;;;;;;;;;;4896072;29;20024;-64
2021/10/30 03:30:30;;;;;;;26.42;14.63;;;;;;;;;;4895866;29;20060;-64
2021/10/30 03:32:56;;;;;;;25.20;14.18;;;;;;;;;;4895836;29;20401;-63
2021/10/30 03:35:22;;;;;;;27.63;13.77;;;;;;;;;;4896989;29;20047;-65
2021/10/30 03:37:48;;;;;;;25.45;14.23;;;;;;;;;;4899573;29;20506;-63
2021/10/30 03:40:14;;;;;;;28.35;14.27;;;;;;;;;;4899404;29;20037;-63
2021/10/30 03:42:40;;;;;;;21.25;12.93;;;;;;;;;;4899440;29;20032;-63
2021/10/30 03:45:07;;;;;;;25.17;13.60;;;;;;;;;;4899405;29;20381;-63
2021/10/30 03:47:33;;;;;;;26.05;13.77;;;;;;;;;;4899344;29;20492;-65
2021/10/30 03:49:59;;;;;;;23.20;14.50;;;;;;;;;;4899495;29;20032;-64
2021/10/30 03:52:26;;;;;;;22.92;13.98;;;;;;;;;;4899470;29;20036;-63
2021/10/30 03:54:53;;;;;;;28.27;14.07;;;;;;;;;;4899335;29;20103;-65
2021/10/30 03:57:19;;;;;;;26.88;13.77;;;;;;;;;;4899197;29;20031;-62
2021/10/30 03:59:45;;;;;;;27.35;14.25;;;;;;;;;;4899379;29;20049;-64
2021/10/30 04:02:12;;;;;;;29.40;14.20;;;;;;;;;;4882011;29;20052;-63
2021/10/30 04:04:38;;;;;;;24.33;14.05;;;;;;;;;;4899242;29;20042;-63
2021/10/30 04:07:04;;;;;;;24.00;14.07;;;;;;;;;;4899212;29;20021;-63
2021/10/30 04:09:30;;;;;;;20.77;12.73;;;;;;;;;;4898914;29;20029;-62
2021/10/30 04:11:56;;;;;;;24.30;14.27;;;;;;;;;;4899186;29;20032;-64
2021/10/30 07:17:41;;;;;;;20.08;11.77;;;;;;;;;;4878662;29;20398;-66
2021/10/30 07:20:08;;;;;;;19.65;10.80;;;;;;;;;;4880901;29;20049;-66
2021/10/30 07:22:45;;;;;;;18.73;10.40;;;;;;;;;;4880588;29;20029;-66
2021/10/30 07:25:11;;;;;;;19.85;12.30;;;;;;;;;;4863844;29;20040;-67
2021/10/30 07:27:38;;;;;;;22.35;10.43;;;;;;;;;;4864126;29;20112;-66
2021/10/30 07:30:05;;;;;;;26.33;11.32;;;;;;;;;;4880886;29;20033;-64
2021/10/30 07:32:31;;;;;;;19.80;10.98;;;;;;;;;;4880836;29;20032;-65
2021/10/30 07:34:57;;;;;;;17.60;10.02;;;;;;;;;;4880705;29;20294;-65
2021/10/30 07:37:23;;;;;;;18.65;10.60;;;;;;;;;;4880913;29;20036;-67
2021/10/30 07:39:49;;;;;;;21.10;10.50;;;;;;;;;;4880582;29;20071;-63
2021/10/30 07:42:15;;;;;;;16.42;9.45;;;;;;;;;;4880862;29;20045;-65
2021/10/30 07:44:41;;;;;;;19.98;8.93;;;;;;;;;;4880383;29;20029;-62
2021/10/30 07:47:08;;;;;;;19.67;10.75;;;;;;;;;;4880478;29;20112;-62
2021/10/30 07:49:35;;;;;;;17.10;10.05;;;;;;;;;;4863789;29;20032;-69
2021/10/30 07:52:02;;;;;;;19.17;10.70;;;;;;;;;;4880406;29;20377;-62
2021/10/30 07:54:28;;;;;;;19.25;10.40;;;;;;;;;;4880555;29;20112;-61
2021/10/30 07:56:54;;;;;;;18.67;10.68;;;;;;;;;;4880626;29;20033;-62
2021/10/30 07:59:20;;;;;;;18.88;10.43;;;;;;;;;;4880275;29;20048;-64
2021/10/30 08:01:46;;;;;;;17.02;9.80;;;;;;;;;;4880265;29;20104;-61
2021/10/30 08:04:12;;;;;;;17.65;10.13;;;;;;;;;;4880275;29;20068;-61
2021/10/30 08:06:38;;;;;;;18.73;9.45;;;;;;;;;;4880344;29;20033;-64
2021/10/30 08:09:04;;;;;;;19.38;10.40;;;;;;;;;;4880214;29;20146;-71
2021/10/30 08:11:31;;;;;;;17.45;10.57;;;;;;;;;;4894068;29;20029;-69
2021/10/30 08:13:57;;;;;;;19.23;10.15;;;;;;;;;;4880179;29;20125;-67
2021/10/30 08:16:23;;;;;;;16.88;9.95;;;;;;;;;;4871766;29;20057;-69
2021/10/30 08:18:49;;;;;;;16.83;9.25;;;;;;;;;;4861319;29;20400;-63
2021/10/30 08:21:15;;;;;;;13.63;8.27;;;;;;;;;;4861134;29;20040;-69
2021/10/30 08:23:41;;;;;;;14.25;9.15;;;;;;;;;;4861587;29;20041;-62
2021/10/30 08:26:08;;;;;;;20.98;10.23;;;;;;;;;;4861077;29;20462;-63
2021/10/30 08:28:34;;;;;;;15.77;9.50;;;;;;;;;;4861158;29;20398;-64
2021/10/30 08:31:00;;;;;;;16.38;9.15;;;;;;;;;;4861137;29;20042;-64
2021/10/30 08:33:26;;;;;;;15.52;9.38;;;;;;;;;;4861055;29;20037;-62
2021/10/30 08:35:52;;;;;;;19.30;9.43;;;;;;;;;;4861115;29;20041;-64
2021/10/30 08:38:18;;;;;;;16.40;9.25;;;;;;;;;;4861047;29;20045;-62
2021/10/30 08:40:44;;;;;;;17.73;9.60;;;;;;;;;;4860726;29;20490;-62
2021/10/30 08:43:11;;;;;;;19.38;9.60;;;;;;;;;;4861221;29;20061;-62
2021/10/30 08:45:37;;;;;;;19.08;9.82;;;;;;;;;;4860876;29;20045;-63
2021/10/30 08:48:04;;;;;;;19.08;10.10;;;;;;;;;;4860936;29;20026;-62
2021/10/30 08:50:30;;;;;;;17.92;9.90;;;;;;;;;;4860587;29;20029;-61
2021/10/30 08:52:56;;;;;;;16.42;9.50;;;;;;;;;;4860885;29;20082;-63
2021/10/30 08:55:22;;;;;;;17.38;10.02;;;;;;;;;;4860644;29;20086;-62
2021/10/30 08:57:49;;;;;;;17.83;9.88;;;;;;;;;;4860774;29;20526;-63
2021/10/30 09:00:15;;;;;;;21.25;9.02;;;;;;;;;;4860576;29;20431;-62
2021/10/30 09:02:41;;;;;;;14.77;8.98;;;;;;;;;;4860785;29;20026;-62
2021/10/30 09:05:11;;;;;;;18.75;9.85;;;;;;;;;;4860773;29;20034;-62
2021/10/30 09:07:38;;;;;;;17.80;9.18;;;;;;;;;;4860498;29;20068;-61
2021/10/30 09:10:20;;;;;;;16.25;8.85;;;;;;;;;;4860777;29;20550;-62
2021/10/30 09:12:53;;;;;;;14.98;9.50;;;;;;;;;;4860423;29;20033;-62
2021/10/30 09:15:28;;;;;;;14.73;8.77;;;;;;;;;;4860237;29;20033;-62
2021/10/30 09:17:55;;;;;;;18.08;9.15;;;;;;;;;;4860023;29;20060;-66
2021/10/30 09:20:29;;;;;;;15.43;8.88;;;;;;;;;;4860139;29;20037;-66
2021/10/30 09:22:55;;;;;;;15.27;7.90;;;;;;;;;;4860518;29;20029;-69
2021/10/30 09:25:21;;;;;;;13.80;7.65;;;;;;;;;;4860333;29;20057;-68
2021/10/30 09:27:50;;;;;;;11.30;7.43;;;;;;;;;;4860389;29;20395;-62
2021/10/30 09:30:35;;;;;;;14.73;7.03;;;;;;;;;;4859845;29;20384;-62
2021/10/30 09:33:03;;;;;;;15.18;7.97;;;;;;;;;;4859541;29;20030;-68
2021/10/30 09:35:32;;;;;;;13.00;7.70;;;;;;;;;;4860163;29;20549;-62
2021/10/30 09:37:59;;;;;;;14.07;7.57;;;;;;;;;;4860212;29;20545;-63
2021/10/30 09:40:26;;;;;;;12.27;7.28;;;;;;;;;;4859826;29;20599;-67
2021/10/30 09:43:06;;;;;;;11.18;6.63;;;;;;;;;;4859976;29;20036;-67
2021/10/30 09:45:32;;;;;;;12.07;6.30;;;;;;;;;;4859406;29;20033;-68
2021/10/30 09:48:01;;;;;;;9.88;6.03;;;;;;;;;;4859656;29;20034;-67
2021/10/30 09:50:34;;;;;;;9.52;6.15;;;;;;;;;;4859707;29;20037;-62
2021/10/30 09:53:20;;;;;;;12.20;6.22;;;;;;;;;;4859767;29;20034;-61
2021/10/30 09:55:51;;;;;;;11.32;6.03;;;;;;;;;;4859400;29;20045;-66
2021/10/30 09:58:26;;;;;;;10.60;5.82;;;;;;;;;;4859164;29;20033;-64
2021/10/30 10:00:52;;;;;;;12.60;6.07;;;;;;;;;;4859190;29;20037;-69
2021/10/30 10:03:19;;;;;;;11.00;6.90;;;;;;;;;;4859522;29;20116;-66
2021/10/30 10:05:45;;;;;;;11.10;6.40;;;;;;;;;;4859510;29;20052;-69
2021/10/30 10:08:11;;;;;;;9.75;5.88;;;;;;;;;;4859233;29;20036;-68
2021/10/30 10:10:37;;;;;;;11.77;5.72;;;;;;;;;;4859205;29;20088;-68
2021/10/30 10:13:03;;;;;;;9.32;5.93;;;;;;;;;;4859455;29;20486;-62
2021/10/30 10:15:30;;;;;;;9.68;5.55;;;;;;;;;;4858806;29;20081;-64
2021/10/30 10:17:57;;;;;;;12.38;5.90;;;;;;;;;;4859188;29;20065;-62
2021/10/30 10:20:23;;;;;;;10.00;5.90;;;;;;;;;;4859214;29;20050;-69
2021/10/30 10:22:49;;;;;;;9.77;6.05;;;;;;;;;;4859326;29;20029;-67
2021/10/30 10:25:24;;;;;;;12.73;5.68;;;;;;;;;;4859342;29;20494;-68
2021/10/30 10:27:50;;;;;;;10.65;5.63;;;;;;;;;;4859014;29;20037;-65
2021/10/30 10:30:16;;;;;;;10.45;5.93;;;;;;;;;;4858779;29;20052;-62
2021/10/30 10:32:42;;;;;;;10.50;6.15;;;;;;;;;;4859376;29;20030;-63
2021/10/30 10:35:14;;;;;;;11.52;6.05;;;;;;;;;;4859365;29;20037;-64
2021/10/30 10:37:48;;;;;;;7.72;4.15;;;;;;;;;;4859187;29;20026;-65
2021/10/30 10:40:27;;;;;;;11.15;6.13;;;;;;;;;;4858993;29;20048;-62
2021/10/30 10:42:53;;;;;;;9.80;5.88;;;;;;;;;;4859166;29;20028;-62
2021/10/30 10:45:19;;;;;;;12.43;5.68;;;;;;;;;;4858968;29;20092;-61
2021/10/30 10:47:49;;;;;;;8.18;4.88;;;;;;;;;;4858989;29;20041;-62
2021/10/30 10:50:18;;;;;;;9.27;5.50;;;;;;;;;;4858874;29;20493;-62
2021/10/30 10:53:00;;;;;;;7.65;5.05;;;;;;;;;;4859116;29;20036;-62
2021/10/30 10:55:26;;;;;;;11.48;6.47;;;;;;;;;;4859161;29;20474;-64
2021/10/30 10:57:58;;;;;;;10.27;6.10;;;;;;;;;;4858739;29;20419;-63
2021/10/30 11:00:24;;;;;;;11.37;5.90;;;;;;;;;;4858680;29;20491;-69
2021/10/30 11:02:50;;;;;;;10.38;6.15;;;;;;;;;;4858978;29;20040;-65
2021/10/30 11:05:20;;;;;;;10.38;5.40;;;;;;;;;;4842389;29;20037;-62
2021/10/30 11:07:49;;;;;;;9.60;5.35;;;;;;;;;;4858604;29;20359;-62
2021/10/30 11:10:17;;;;;;;10.88;6.28;;;;;;;;;;4857869;29;20033;-63
2021/10/30 11:12:43;;;;;;;10.65;5.72;;;;;;;;;;4859109;29;20040;-62
2021/10/30 11:15:11;;;;;;;10.73;5.55;;;;;;;;;;4858791;29;20440;-62
2021/10/30 11:17:45;;;;;;;9.75;5.38;;;;;;;;;;4858644;29;20050;-67
2021/10/30 11:20:15;;;;;;;9.95;5.45;;;;;;;;;;4858409;29;20096;-62
2021/10/30 11:23:00;;;;;;;9.85;5.40;;;;;;;;;;4858805;29;20033;-67
2021/10/30 11:25:33;;;;;;;11.65;7.30;;;;;;;;;;4857809;29;20108;-62
2021/10/30 11:27:59;;;;;;;10.10;5.35;;;;;;;;;;4858271;29;20029;-62
2021/10/30 11:30:39;;;;;;;10.02;5.63;;;;;;;;;;4858728;29;20478;-61
2021/10/30 11:33:25;;;;;;;10.00;5.45;;;;;;;;;;4858218;29;20470;-64
2021/10/30 11:36:00;;;;;;;8.45;5.57;;;;;;;;;;4858113;29;20061;-61
2021/10/30 11:38:37;;;;;;;10.38;5.40;;;;;;;;;;4858008;29;20085;-64
2021/10/30 11:41:05;;;;;;;8.02;4.78;;;;;;;;;;4858170;29;20045;-60
2021/10/30 11:43:31;;;;;;;8.40;5.25;;;;;;;;;;4858450;29;20037;-63
2021/10/30 11:45:58;;;;;;;10.65;5.05;;;;;;;;;;4858106;29;20539;-62
2021/10/30 11:48:35;;;;;;;7.07;4.55;;;;;;;;;;4858074;29;20044;-65
2021/10/30 11:51:01;;;;;;;8.80;5.03;;;;;;;;;;4858163;29;20978;-66
2021/10/30 11:53:31;;;;;;;7.30;4.90;;;;;;;;;;4858479;29;20125;-61
2021/10/30 11:56:07;;;;;;;8.02;5.03;;;;;;;;;;4858660;29;20022;-63
2021/10/30 11:58:34;;;;;;;9.13;4.65;;;;;;;;;;4861527;29;20040;-62
2021/10/30 12:01:00;;;;;;;8.18;5.18;;;;;;;;;;4861474;29;20094;-61
2021/10/30 12:03:35;;;;;;;9.32;4.63;;;;;;;;;;4861643;29;20478;-61
2021/10/30 12:06:01;;;;;;;11.05;5.05;;;;;;;;;;4861463;29;20116;-62
2021/10/30 12:08:27;;;;;;;8.20;4.85;;;;;;;;;;4861372;29;20038;-65
2021/10/30 12:10:53;;;;;;;11.90;5.22;;;;;;;;;;4861560;29;20038;-62
2021/10/30 12:13:19;;;;;;;8.50;4.78;;;;;;;;;;4861651;29;20490;-62
2021/10/30 12:15:47;;;;;;;8.35;4.47;;;;;;;;;;4862026;29;20061;-62
2021/10/30 12:18:13;;;;;;;7.53;3.78;;;;;;;;;;4877578;29;20480;-64
2021/10/30 12:20:39;;;;;;;11.48;5.85;;;;;;;;;;4878926;29;20037;-62
2021/10/30 12:23:11;;;;;;;15.25;5.80;;;;;;;;;;4878329;29;20029;-63
2021/10/30 12:25:37;;;;;;;16.17;6.85;;;;;;;;;;4876966;29;20041;-62
2021/10/30 12:28:03;;;;;;;12.05;6.75;;;;;;;;;;4864816;29;20029;-65
2021/10/30 12:30:32;;;;;;;13.60;7.82;;;;;;;;;;4874547;29;20676;-65
2021/10/30 12:33:09;;;;;;;11.23;6.00;;;;;;;;;;4877861;29;20044;-62
2021/10/30 12:35:36;;;;;;;14.45;6.78;;;;;;;;;;4879273;29;20021;-66
2021/10/30 12:38:11;;;;;;;14.43;5.85;;;;;;;;;;4878775;29;20069;-62
2021/10/30 12:40:37;;;;;;;11.55;5.82;;;;;;;;;;4878622;29;20264;-62
2021/10/30 12:43:07;;;;;;;8.18;5.15;;;;;;;;;;4879144;29;20057;-62
2021/10/30 12:45:49;;;;;;;12.65;6.00;;;;;;;;;;4878579;29;20029;-60
2021/10/30 12:48:21;;;;;;;12.82;6.70;;;;;;;;;;4878152;29;20489;-61
2021/10/30 12:50:58;;;;;;;11.65;7.05;;;;;;;;;;4879022;29;20045;-66
2021/10/30 12:53:34;;;;;;;12.82;7.40;;;;;;;;;;4878800;29;20501;-61
2021/10/30 12:56:06;;;;;;;14.18;8.02;;;;;;;;;;4878229;29;20025;-64
2021/10/30 12:58:38;;;;;;;14.15;7.65;;;;;;;;;;4878134;29;20033;-67
2021/10/30 13:01:05;;;;;;;13.38;8.02;;;;;;;;;;4878210;29;20517;-63
2021/10/30 13:03:32;;;;;;;11.48;7.97;;;;;;;;;;4878395;29;20157;-63
2021/10/30 13:05:58;;;;;;;13.93;7.43;;;;;;;;;;4878789;29;20488;-64
2021/10/30 13:08:24;;;;;;;18.92;9.77;;;;;;;;;;4877640;29;20112;-66
2021/10/30 13:10:50;;;;;;;14.23;9.27;;;;;;;;;;4852577;29;20033;-63
2021/10/30 13:13:16;;;;;;;14.77;8.77;;;;;;;;;;4860051;29;20038;-61
2021/10/30 13:15:42;;;;;;;16.13;8.50;;;;;;;;;;4859703;29;20046;-62
2021/10/30 13:18:08;;;;;;;13.23;7.97;;;;;;;;;;4859791;29;20490;-62
2021/10/30 13:20:34;;;;;;;12.40;8.70;;;;;;;;;;4857292;29;20496;-63
2021/10/30 13:23:00;;;;;;;16.33;10.13;;;;;;;;;;4860128;29;20033;-63
2021/10/30 13:25:26;;;;;;;15.45;8.90;;;;;;;;;;4859835;29;20030;-62
2021/10/30 13:27:52;;;;;;;16.15;8.68;;;;;;;;;;4859828;29;20068;-62
2021/10/30 13:30:18;;;;;;;14.43;8.27;;;;;;;;;;4859166;29;20037;-62
2021/10/30 13:32:45;;;;;;;15.75;8.48;;;;;;;;;;4857254;29;20038;-62
2021/10/30 13:35:12;;;;;;;15.50;7.63;;;;;;;;;;4857233;29;20049;-67
2021/10/30 13:37:38;;;;;;;13.35;8.45;;;;;;;;;;4856667;29;20031;-64
2021/10/30 13:40:05;;;;;;;15.25;7.63;;;;;;;;;;4855450;29;20439;-64
2021/10/30 13:42:31;;;;;;;15.23;8.82;;;;;;;;;;4859300;29;20029;-70
2021/10/30 13:44:57;;;;;;;14.30;8.88;;;;;;;;;;4857149;29;20128;-68
2021/10/30 13:47:23;;;;;;;16.65;8.52;;;;;;;;;;4859779;29;20033;-64
2021/10/30 13:49:49;;;;;;;17.00;9.10;;;;;;;;;;4859837;29;20040;-69
2021/10/30 13:52:15;;;;;;;20.55;11.02;;;;;;;;;;4859261;29;20212;-69
2021/10/30 13:54:41;;;;;;;16.55;10.93;;;;;;;;;;4859712;29;20033;-72
2021/10/30 13:57:08;;;;;;;22.40;13.50;;;;;;;;;;4859653;29;20048;-65
2021/10/30 13:59:34;;;;;;;15.98;9.68;;;;;;;;;;4853604;29;20036;-66
2021/10/30 14:02:00;;;;;;;14.00;8.57;;;;;;;;;;4858628;29;20112;-64
2021/10/30 14:04:29;;;;;;;13.43;8.80;;;;;;;;;;4872369;29;20025;-65
2021/10/30 14:06:56;;;;;;;14.45;9.13;;;;;;;;;;4877975;29;20053;-66
2021/10/30 14:09:22;;;;;;;16.70;8.88;;;;;;;;;;4878024;29;20021;-66
2021/10/30 14:11:48;;;;;;;16.05;8.63;;;;;;;;;;4876655;29;20096;-65
2021/10/30 14:14:14;;;;;;;15.95;9.05;;;;;;;;;;4877176;29;20048;-71
2021/10/30 14:16:40;;;;;;;15.85;9.82;;;;;;;;;;4887437;29;20044;-68
2021/10/30 14:19:06;;;;;;;15.82;9.38;;;;;;;;;;4896234;29;20048;-66
2021/10/30 14:21:32;;;;;;;14.90;9.35;;;;;;;;;;4896386;29;20201;-69
2021/10/30 14:23:58;;;;;;;16.08;10.23;;;;;;;;;;4895910;29;20836;-65
2021/10/30 14:26:25;;;;;;;17.05;9.80;;;;;;;;;;4895985;29;20470;-67
2021/10/30 14:28:53;;;;;;;19.77;10.52;;;;;;;;;;4896052;29;20373;-67
2021/10/30 14:31:20;;;;;;;19.88;11.48;;;;;;;;;;4896081;29;20025;-65
2021/10/30 14:33:46;;;;;;;17.65;10.52;;;;;;;;;;4896065;29;20085;-63
2021/10/30 14:36:12;;;;;;;19.75;10.95;;;;;;;;;;4896003;29;20673;-67
2021/10/30 14:38:38;;;;;;;22.50;11.38;;;;;;;;;;4896089;29;20036;-64
2021/10/30 14:41:05;;;;;;;20.60;10.30;;;;;;;;;;4895887;29;20038;-69
2021/10/30 14:43:31;;;;;;;22.85;11.13;;;;;;;;;;4895878;29;20063;-63
2021/10/30 14:45:57;;;;;;;23.73;11.52;;;;;;;;;;4894765;29;20460;-64
2021/10/30 14:48:24;;;;;;;21.63;12.10;;;;;;;;;;4895388;29;20478;-71
2021/10/30 14:50:50;;;;;;;21.60;12.27;;;;;;;;;;4895370;29;20116;-66
2021/10/30 14:53:16;;;;;;;23.00;12.48;;;;;;;;;;4895413;29;20052;-65
2021/10/30 14:55:43;;;;;;;22.27;13.27;;;;;;;;;;4894920;29;20024;-66
2021/10/30 14:58:10;;;;;;;26.08;14.63;;;;;;;;;;4890676;29;20016;-67
2021/10/30 15:00:37;;;;;;;27.02;14.60;;;;;;;;;;4895135;29;20092;-66
2021/10/30 15:03:07;;;;;;;27.77;15.90;;;;;;;;;;4890649;29;20477;-66
2021/10/30 15:05:33;;;;;;;27.30;14.85;;;;;;;;;;4895120;29;20016;-67
2021/10/30 15:07:59;;;;;;;26.50;15.05;;;;;;;;;;4895399;29;20036;-66
2021/10/30 15:10:25;;;;;;;29.83;15.65;;;;;;;;;;4894904;29;20040;-69
2021/10/30 15:12:52;;;;;;;29.23;14.73;;;;;;;;;;4877951;29;20096;-66
2021/10/30 15:15:18;;;;;;;24.73;15.43;;;;;;;;;;4895187;29;20123;-70
2021/10/30 15:17:44;;;;;;;28.83;16.30;;;;;;;;;;4877038;29;20053;-65
2021/10/30 15:20:11;;;;;;;27.27;15.48;;;;;;;;;;4876751;29;20132;-70
2021/10/30 15:22:37;;;;;;;25.60;14.55;;;;;;;;;;4876799;29;20474;-72
2021/10/30 15:25:04;;;;;;;25.77;14.00;;;;;;;;;;4876387;29;20032;-67
2021/10/30 15:27:30;;;;;;;25.65;15.68;;;;;;;;;;4876728;29;20033;-68
2021/10/30 15:29:56;;;;;;;27.95;14.90;;;;;;;;;;4876662;29;20112;-68
2021/10/30 15:32:22;;;;;;;28.65;16.20;;;;;;;;;;4862246;29;20077;-69
2021/10/30 15:34:50;;;;;;;28.38;15.50;;;;;;;;;;4880463;29;20032;-66
2021/10/30 15:37:17;;;;;;;28.88;16.65;;;;;;;;;;4880640;29;20029;-75
2021/10/30 15:39:43;;;;;;;29.65;16.88;;;;;;;;;;4880498;29;20120;-66
2021/10/30 15:42:09;;;;;;;30.67;15.77;;;;;;;;;;4880452;29;20112;-70
2021/10/30 15:44:36;;;;;;;29.80;16.30;;;;;;;;;;4880832;29;20060;-67
2021/10/30 15:47:03;;;;;;;39.75;16.75;;;;;;;;;;4879672;29;20104;-68
2021/10/30 15:49:30;;;;;;;30.17;15.73;;;;;;;;;;4880309;29;20036;-71
2021/10/30 15:51:57;;;;;;;34.25;18.88;;;;;;;;;;4863442;29;20029;-65
2021/10/30 15:54:23;;;;;;;34.95;20.02;;;;;;;;;;4880452;29;20119;-66
2021/10/30 15:56:50;;;;;;;46.88;20.75;;;;;;;;;;4877588;29;20029;-72
2021/10/30 15:59:16;;;;;;;35.20;19.13;;;;;;;;;;4858101;29;20044;-66
2021/10/30 16:01:42;;;;;;;36.92;19.00;;;;;;;;;;4843652;29;20371;-67
2021/10/30 16:04:08;;;;;;;37.58;20.42;;;;;;;;;;4861052;29;20041;-67
2021/10/30 16:06:35;;;;;;;37.50;20.60;;;;;;;;;;4854757;29;20031;-71
2021/10/30 16:09:03;;;;;;;42.28;20.83;;;;;;;;;;4860039;29;20155;-65
2021/10/30 16:11:34;;;;;;;44.13;21.55;;;;;;;;;;4844032;29;20116;-66
2021/10/30 16:14:02;;;;;;;41.20;21.42;;;;;;;;;;4860327;29;20084;-66
2021/10/30 16:16:30;;;;;;;46.80;22.67;;;;;;;;;;4871834;29;20085;-66
2021/10/30 16:18:57;;;;;;;50.05;23.60;;;;;;;;;;4897419;29;20067;-64
2021/10/30 16:21:23;;;;;;;47.83;23.80;;;;;;;;;;4897677;29;20024;-65
2021/10/30 16:23:49;;;;;;;50.63;24.83;;;;;;;;;;4897702;29;20035;-65
2021/10/30 16:26:15;;;;;;;53.85;25.58;;;;;;;;;;4898155;29;20028;-65
2021/10/30 16:28:45;;;;;;;50.88;25.98;;;;;;;;;;4898549;29;20032;-65
2021/10/30 16:31:12;;;;;;;60.72;27.15;;;;;;;;;;4898488;29;20032;-69
2021/10/30 16:33:38;;;;;;;54.63;27.88;;;;;;;;;;4898026;29;20029;-64
2021/10/30 16:36:05;;;;;;;55.25;27.27;;;;;;;;;;4881632;29;20124;-66
2021/10/30 16:38:31;;;;;;;57.42;24.70;;;;;;;;;;4897830;29;20081;-65
2021/10/30 16:40:57;;;;;;;51.28;25.98;;;;;;;;;;4897985;29;20037;-69
2021/10/30 16:43:23;;;;;;;55.35;26.58;;;;;;;;;;4898217;29;20031;-66
2021/10/30 16:45:49;;;;;;;53.30;27.15;;;;;;;;;;4898389;29;20032;-69
2021/10/30 16:48:16;;;;;;;55.15;27.23;;;;;;;;;;4898114;29;20040;-66
2021/10/30 16:50:42;;;;;;;45.78;26.15;;;;;;;;;;4898186;29;20104;-65
2021/10/30 16:53:09;;;;;;;47.30;24.83;;;;;;;;;;4898223;29;20047;-68
2021/10/30 16:55:38;;;;;;;46.05;24.42;;;;;;;;;;4898020;29;20025;-65
2021/10/30 16:58:05;;;;;;;41.78;21.58;;;;;;;;;;4897804;29;20056;-67
2021/10/30 17:00:31;;;;;;;43.35;22.30;;;;;;;;;;4897498;29;20047;-68
2021/10/30 17:02:57;;;;;;;44.10;22.05;;;;;;;;;;4897843;29;20370;-67
2021/10/30 17:05:23;;;;;;;39.35;20.33;;;;;;;;;;4897912;29;20452;-67
2021/10/30 17:07:50;;;;;;;42.25;21.35;;;;;;;;;;4897878;29;20031;-71
2021/10/30 17:10:16;;;;;;;37.30;21.10;;;;;;;;;;4897559;29;20040;-71
2021/10/30 17:12:43;;;;;;;39.63;21.45;;;;;;;;;;4897713;29;20025;-68
2021/10/30 17:15:09;;;;;;;40.58;21.30;;;;;;;;;;4897500;29;20036;-73
2021/10/30 17:17:35;;;;;;;39.50;20.02;;;;;;;;;;4897389;29;20067;-71
2021/10/30 17:20:03;;;;;;;35.47;18.95;;;;;;;;;;4897340;29;20044;-67
2021/10/30 17:22:31;;;;;;;33.22;18.08;;;;;;;;;;4897665;29;20024;-70
2021/10/30 17:24:58;;;;;;;37.83;19.25;;;;;;;;;;4897522;29;20482;-67
2021/10/30 17:27:24;;;;;;;30.77;17.50;;;;;;;;;;4897241;29;20056;-67